Time;durP1;ratioP1;P1;durP2;ratioP2;P2;SDS_P1;SDS_P2;PMS_P1;PMS_P2;Temp;Humidity;BMP_temperature;BMP_pressure;BME280_temperature;BME280_humidity;BME280_pressure;Samples;Min_cycle;Max_cycle;Signal;HPM_P1;HPM_P2
2023/04/02 00:01:00;;;;;;;1.30;1.00;;;;;;;9.82;63.92;93971.06;4991231;28;20511;-77
2023/04/02 00:03:52;;;;;;;1.77;0.82;;;;;;;9.89;63.86;93972.78;4991854;28;20448;-77
2023/04/02 00:06:32;;;;;;;3.13;1.13;;;;;;;9.94;63.57;93976.34;4989404;28;20451;-77
2023/04/02 00:09:04;;;;;;;2.05;1.00;;;;;;;10.02;63.29;93975.19;4991211;28;20447;-77
2023/04/02 00:11:36;;;;;;;1.90;1.17;;;;;;;10.09;62.87;93981.94;4990198;28;20480;-77
2023/04/02 00:14:14;;;;;;;1.20;0.90;;;;;;;10.12;62.52;93978.03;4993157;28;20173;-77
2023/04/02 00:16:40;;;;;;;1.37;0.90;;;;;;;10.14;62.36;93975.97;4992161;28;20180;-77
2023/04/02 00:19:11;;;;;;;0.80;0.80;;;;;;;10.14;62.17;93968.09;4992444;28;20424;-77
2023/04/02 00:21:40;;;;;;;1.42;0.90;;;;;;;9.89;62.01;93947.28;5006617;28;20880;-77
2023/04/02 00:24:14;;;;;;;0.83;0.70;;;;;;;9.99;61.31;93967.75;4991220;28;20838;-77
2023/04/02 00:26:45;;;;;;;1.38;0.80;;;;;;;9.97;61.96;93967.16;4990148;28;20426;-76
2023/04/02 00:29:13;;;;;;;0.80;0.80;;;;;;;9.96;62.10;93960.31;4992063;28;20416;-77
2023/04/02 00:31:42;;;;;;;2.80;1.30;;;;;;;9.99;61.71;93958.03;4992696;28;20264;-77
2023/04/02 00:34:14;;;;;;;1.23;1.00;;;;;;;9.73;62.67;93955.84;4989494;28;20781;-77
2023/04/02 00:36:42;;;;;;;1.70;1.03;;;;;;;9.79;62.21;93947.06;4991247;28;20169;-77
2023/04/02 00:39:16;;;;;;;2.28;1.23;;;;;;;9.82;61.89;93957.13;4991177;28;20427;-77
2023/04/02 00:41:45;;;;;;;1.80;1.10;;;;;;;9.86;61.46;93946.97;4990904;28;20467;-76
2023/04/02 00:44:20;;;;;;;1.20;0.80;;;;;;;9.96;61.43;93944.53;4992537;28;20454;-77
2023/04/02 00:46:48;;;;;;;0.77;0.77;;;;;;;10.01;61.88;93944.66;4991961;28;20212;-77
2023/04/02 00:49:33;;;;;;;1.42;0.80;;;;;;;9.97;61.68;93940.88;4990629;28;20456;-77
2023/04/02 00:52:07;;;;;;;0.90;0.82;;;;;;;9.94;61.38;93942.16;4990099;28;20409;-77
2023/04/02 00:54:41;;;;;;;1.05;0.70;;;;;;;10.11;60.83;93963.31;4990690;28;20413;-77
2023/04/02 00:57:15;;;;;;;2.50;0.80;;;;;;;10.04;61.19;93967.84;4989126;28;20447;-77
2023/04/02 01:00:13;;;;;;;0.80;0.70;;;;;;;10.14;60.10;93960.19;4991223;28;20810;-77
2023/04/02 01:02:39;;;;;;;0.80;0.80;;;;;;;10.20;60.39;93957.47;4988837;28;20203;-77
2023/04/02 01:05:13;;;;;;;1.52;0.90;;;;;;;10.13;60.75;93964.66;4990738;28;20558;-77
2023/04/02 01:07:48;;;;;;;2.43;1.20;;;;;;;10.20;60.55;93968.00;4991849;28;20408;-77
2023/04/02 01:10:31;;;;;;;0.93;0.70;;;;;;;10.17;60.54;93963.22;5006869;28;20415;-77
2023/04/02 01:13:29;;;;;;;3.43;0.90;;;;;;;10.12;60.88;93955.16;4992001;28;20165;-77
2023/04/02 01:15:55;;;;;;;1.95;1.00;;;;;;;10.02;60.95;93951.53;4990255;28;20448;-76
2023/04/02 01:18:20;;;;;;;1.77;1.63;;;;;;;10.02;61.35;93960.22;4992166;28;20256;-77
2023/04/02 01:21:07;;;;;;;3.07;1.30;;;;;;;10.04;61.45;93955.50;4992133;28;20288;-77
2023/04/02 01:23:37;;;;;;;1.57;1.23;;;;;;;9.84;60.86;93920.91;4991902;28;20184;-77
2023/04/02 01:26:11;;;;;;;2.30;0.90;;;;;;;10.10;61.14;93959.88;4988565;28;20162;-77
2023/04/02 01:28:46;;;;;;;0.80;0.80;;;;;;;10.11;60.68;93964.09;4992012;28;20550;-77
2023/04/02 01:31:14;;;;;;;1.30;1.20;;;;;;;10.13;60.87;93966.47;4992206;28;20176;-77
2023/04/02 01:33:40;;;;;;;2.33;1.37;;;;;;;10.12;60.78;93967.50;4991921;28;20181;-77
2023/04/02 01:36:15;;;;;;;1.73;1.20;;;;;;;10.11;60.59;93968.56;4991735;28;20263;-77
2023/04/02 01:38:50;;;;;;;2.90;1.80;;;;;;;10.04;60.53;93981.00;4989989;28;20495;-77
2023/04/02 01:41:29;;;;;;;2.53;2.23;;;;;;;9.99;60.46;93973.00;4990697;28;20634;-77
2023/04/02 01:44:24;;;;;;;3.57;1.70;;;;;;;9.90;60.83;93964.66;4990455;28;20173;-77
2023/04/02 01:46:49;;;;;;;2.03;1.60;;;;;;;9.83;60.64;93962.16;4991670;28;20223;-77
2023/04/02 01:49:20;;;;;;;3.80;1.67;;;;;;;9.81;60.79;93948.44;4991558;28;20439;-77
2023/04/02 01:51:51;;;;;;;1.97;1.57;;;;;;;9.84;62.18;93969.00;4991908;28;20578;-77
2023/04/02 01:54:19;;;;;;;3.13;1.40;;;;;;;9.65;63.57;93959.63;4992190;28;20631;-77
2023/04/02 01:56:46;;;;;;;2.87;1.60;;;;;;;9.58;65.17;93966.81;4992270;28;20682;-77
2023/04/02 01:59:13;;;;;;;2.10;1.87;;;;;;;9.44;65.45;93955.69;4995899;28;20181;-77
2023/04/02 02:01:47;;;;;;;2.35;1.52;;;;;;;9.17;67.16;93935.34;4991831;28;20490;-77
2023/04/02 02:04:14;;;;;;;3.27;1.53;;;;;;;9.13;67.37;93950.72;4994902;28;20179;-77
2023/04/02 02:06:41;;;;;;;2.43;1.60;;;;;;;9.00;67.79;93943.03;4995453;28;20184;-77
2023/04/02 02:09:11;;;;;;;1.93;1.50;;;;;;;8.93;67.90;93952.81;4995393;28;20173;-77
2023/04/02 02:11:37;;;;;;;2.80;1.60;;;;;;;8.70;68.93;93959.59;4995134;28;20427;-77
2023/04/02 02:14:15;;;;;;;2.50;1.50;;;;;;;8.51;69.93;93952.75;4994001;28;20408;-77
2023/04/02 02:16:41;;;;;;;2.33;1.70;;;;;;;8.30;71.47;93950.56;4993219;28;20499;-77
2023/04/02 02:19:19;;;;;;;2.10;1.83;;;;;;;8.36;71.57;93947.09;4995359;28;20189;-77
2023/04/02 02:21:50;;;;;;;3.97;1.80;;;;;;;8.16;71.62;93934.16;4995283;28;20482;-77
2023/04/02 02:24:22;;;;;;;4.47;2.30;;;;;;;8.31;71.40;93952.97;4995274;28;20638;-76
2023/04/02 02:27:02;;;;;;;1.90;1.67;;;;;;;8.34;71.62;93956.97;4993473;28;20177;-77
2023/04/02 02:29:34;;;;;;;3.53;1.90;;;;;;;8.15;72.07;93952.72;4992770;28;20448;-77
2023/04/02 02:32:01;;;;;;;2.07;1.87;;;;;;;8.02;71.94;93929.28;4995296;28;20248;-77
2023/04/02 02:34:42;;;;;;;2.90;1.83;;;;;;;8.10;72.00;93949.97;4995120;28;20638;-77
2023/04/02 02:37:20;;;;;;;3.03;1.77;;;;;;;8.15;71.78;93960.59;4993701;28;20488;-77
2023/04/02 02:39:52;;;;;;;2.77;1.87;;;;;;;8.07;72.16;93950.38;4994923;28;20273;-76
2023/04/02 02:42:31;;;;;;;3.03;2.17;;;;;;;8.07;72.10;93938.09;4995001;28;20186;-77
2023/04/02 02:44:58;;;;;;;2.67;1.70;;;;;;;8.10;71.53;93934.25;4993129;28;20245;-76
2023/04/02 02:47:29;;;;;;;2.83;1.57;;;;;;;8.22;70.98;93949.00;4994797;28;20196;-76
2023/04/02 02:50:17;;;;;;;3.53;1.90;;;;;;;8.31;70.46;93944.31;4994895;28;20173;-77
2023/04/02 02:52:46;;;;;;;2.60;1.80;;;;;;;8.16;69.90;93915.81;4993056;28;20173;-77
2023/04/02 02:55:16;;;;;;;2.03;1.77;;;;;;;8.43;69.12;93947.81;4994637;28;20279;-77
2023/04/02 02:57:55;;;;;;;4.43;2.23;;;;;;;8.36;68.35;93926.09;4994734;28;20177;-78
2023/04/02 03:00:23;;;;;;;5.43;1.80;;;;;;;8.49;67.96;93933.00;5001493;28;20185;-77
2023/04/02 03:02:51;;;;;;;2.30;1.63;;;;;;;8.71;68.79;93955.13;4994567;28;20170;-77
2023/04/02 03:05:21;;;;;;;2.40;1.50;;;;;;;8.66;66.74;93929.56;4994594;28;20694;-77
2023/04/02 03:07:51;;;;;;;3.10;1.37;;;;;;;8.92;66.70;93951.22;4994215;28;20177;-78
2023/04/02 03:10:50;;;;;;;2.47;1.20;;;;;;;9.00;65.98;93954.31;4994638;28;20181;-78
2023/04/02 03:13:34;;;;;;;1.77;1.30;;;;;;;9.12;65.13;93954.38;4993134;28;20185;-78
2023/04/02 03:16:22;;;;;;;2.30;1.53;;;;;;;9.16;64.58;93958.16;4993292;28;20670;-78
2023/04/02 03:18:56;;;;;;;2.07;1.70;;;;;;;9.21;64.30;93968.78;4994163;28;20177;-78
2023/04/02 03:21:38;;;;;;;2.92;1.80;;;;;;;9.18;64.15;93963.16;4992635;28;20940;-78
2023/04/02 03:24:33;;;;;;;2.35;1.77;;;;;;;9.23;64.11;93971.19;4993038;28;20360;-78
2023/04/02 03:27:22;;;;;;;3.03;2.40;;;;;;;9.03;63.73;93930.25;4992665;28;20259;-78
2023/04/02 03:29:57;;;;;;;2.53;2.20;;;;;;;9.14;64.17;93951.53;4994383;28;20181;-78
2023/04/02 03:32:28;;;;;;;3.80;1.97;;;;;;;9.27;64.48;93975.75;4990393;28;20176;-78
2023/04/02 03:35:13;;;;;;;4.37;1.77;;;;;;;9.05;65.28;93958.91;4992912;28;20335;-77
2023/04/02 03:37:45;;;;;;;4.17;1.30;;;;;;;9.02;66.25;93968.03;4993468;28;20219;-78
2023/04/02 03:40:25;;;;;;;4.10;2.10;;;;;;;8.92;66.94;93974.81;4993973;28;20177;-78
2023/04/02 03:43:02;;;;;;;5.53;2.23;;;;;;;8.68;67.06;93974.72;4993698;28;20219;-78
2023/04/02 03:45:41;;;;;;;6.37;3.00;;;;;;;8.49;67.65;93952.16;4990867;28;20220;-78
2023/04/02 03:48:22;;;;;;;6.47;3.90;;;;;;;8.46;67.90;93965.72;4993854;28;20193;-77
2023/04/02 03:50:55;;;;;;;7.33;4.30;;;;;;;8.30;68.09;93953.97;4992013;28;20192;-77
2023/04/02 03:53:27;;;;;;;19.52;9.90;;;;;;;8.29;68.20;93962.06;4993047;28;20454;-77
2023/04/02 03:55:53;;;;;;;11.93;5.83;;;;;;;8.27;67.73;93946.53;4993677;28;20713;-76
2023/04/02 03:58:39;;;;;;;8.77;4.40;;;;;;;8.42;66.44;93964.56;4993495;28;20239;-76
2023/04/02 04:01:18;;;;;;;5.97;3.27;;;;;;;8.48;65.76;93962.88;4991559;28;20626;-76
2023/04/02 04:03:51;;;;;;;8.20;4.20;;;;;;;8.56;65.84;93968.63;4992981;28;20639;-76
2023/04/02 04:06:27;;;;;;;6.80;3.77;;;;;;;8.64;65.78;93973.59;4992855;28;20228;-75
2023/04/02 04:09:17;;;;;;;7.07;3.97;;;;;;;8.66;66.17;93979.38;4992886;28;20247;-75
2023/04/02 04:11:52;;;;;;;8.15;3.58;;;;;;;8.51;67.39;93973.72;4991025;28;20442;-76
2023/04/02 04:14:36;;;;;;;4.57;2.40;;;;;;;8.38;68.25;93976.53;4992688;28;20211;-75
2023/04/02 04:17:08;;;;;;;6.43;2.93;;;;;;;8.05;68.50;93953.22;4991338;28;20200;-75
2023/04/02 04:19:53;;;;;;;7.73;4.00;;;;;;;8.19;68.87;93985.34;4992113;28;20176;-75
2023/04/02 04:22:29;;;;;;;12.02;7.20;;;;;;;8.15;69.41;93994.66;4991311;28;20573;-76
2023/04/02 04:24:56;;;;;;;9.83;5.43;;;;;;;8.10;69.92;93986.66;4992910;28;20629;-76
2023/04/02 04:27:36;;;;;;;12.27;5.70;;;;;;;7.80;69.32;93939.38;4993004;28;20161;-76
2023/04/02 04:30:29;;;;;;;9.23;2.83;;;;;;;8.09;69.41;93996.34;4991624;28;20176;-76
2023/04/02 04:33:09;;;;;;;7.23;2.87;;;;;;;8.04;70.01;93988.34;4991078;28;20181;-76
2023/04/02 04:35:45;;;;;;;5.20;3.13;;;;;;;8.03;70.20;93996.41;4992918;28;20288;-76
2023/04/02 04:38:20;;;;;;;6.00;2.27;;;;;;;7.95;70.40;93995.66;4992705;28;20571;-76
2023/04/02 04:40:54;;;;;;;3.13;2.10;;;;;;;7.84;71.11;93995.56;4993084;28;20736;-76
2023/04/02 04:43:45;;;;;;;4.67;2.77;;;;;;;7.81;71.67;94002.03;4992597;28;20185;-76
2023/04/02 04:46:17;;;;;;;6.67;2.43;;;;;;;8.18;71.27;94004.72;5007561;28;20223;-75
2023/04/02 04:49:11;;;;;;;3.30;2.30;;;;;;;8.69;69.11;93997.31;4992869;28;20177;-76
2023/04/02 04:52:04;;;;;;;4.53;2.20;;;;;;;9.36;67.54;94008.56;4991036;28;20197;-76
2023/04/02 04:54:30;;;;;;;3.77;2.10;;;;;;;10.10;64.96;94009.84;4992643;28;20196;-76
2023/04/02 04:57:00;;;;;;;3.10;1.97;;;;;;;10.86;62.88;94013.31;4992428;28;20239;-76
2023/04/02 04:59:49;;;;;;;3.33;2.07;;;;;;;11.86;58.71;94024.13;4992775;28;20181;-76
2023/04/02 05:02:30;;;;;;;4.57;2.07;;;;;;;12.36;55.86;94029.41;4984325;28;20625;-76
2023/04/02 05:04:59;;;;;;;3.97;2.00;;;;;;;12.76;53.31;94031.78;4992515;28;20230;-75
2023/04/02 05:07:29;;;;;;;2.30;1.80;;;;;;;13.67;51.67;94034.69;4992413;28;20208;-76
2023/04/02 05:10:02;;;;;;;5.73;2.93;;;;;;;14.64;48.51;94036.31;5007664;28;20609;-76
2023/04/02 05:12:51;;;;;;;4.10;2.47;;;;;;;16.49;44.62;94019.56;4992408;28;20253;-79
2023/04/02 05:15:31;;;;;;;5.03;2.25;;;;;;;18.30;40.29;94025.16;4992290;28;20263;-76
2023/04/02 05:18:19;;;;;;;6.47;2.30;;;;;;;20.05;36.59;94031.78;4991889;28;20193;-77
2023/04/02 05:21:19;;;;;;;3.90;2.28;;;;;;;21.39;33.52;94034.31;4990823;28;20193;-78
2023/04/02 05:23:51;;;;;;;8.68;2.67;;;;;;;22.17;31.75;94033.22;4957698;28;20197;-78
2023/04/02 05:26:23;;;;;;;4.97;2.47;;;;;;;22.98;31.05;94038.53;4983771;28;20174;-79
2023/04/02 05:29:11;;;;;;;4.18;2.15;;;;;;;23.88;29.50;94045.19;4992763;28;20227;-79
2023/04/02 05:31:42;;;;;;;4.72;2.15;;;;;;;24.64;28.16;94039.41;4992193;28;20169;-79
2023/04/02 05:34:10;;;;;;;3.85;2.75;;;;;;;24.94;26.99;94038.41;4992774;28;20259;-79
2023/04/02 05:36:36;;;;;;;6.47;2.40;;;;;;;24.92;26.84;94035.25;4992607;28;20201;-79
2023/04/02 05:39:01;;;;;;;4.90;2.67;;;;;;;25.65;26.13;94041.34;4992777;28;20185;-79
2023/04/02 05:41:42;;;;;;;3.88;2.50;;;;;;;26.05;25.51;94019.38;4992596;28;20174;-79
2023/04/02 05:44:17;;;;;;;5.18;2.28;;;;;;;26.65;24.52;94059.41;4992758;28;20268;-79
2023/04/02 05:46:56;;;;;;;5.28;2.63;;;;;;;27.13;23.93;94052.63;4984787;28;20223;-79
2023/04/02 05:49:52;;;;;;;3.20;2.60;;;;;;;27.51;23.24;94053.13;4980221;28;20181;-80
2023/04/02 05:52:32;;;;;;;4.53;2.63;;;;;;;28.06;23.25;94047.19;5002784;28;20193;-79
2023/04/02 05:55:36;;;;;;;3.95;2.53;;;;;;;28.54;22.30;94065.28;4991637;28;20227;-79
2023/04/02 05:58:06;;;;;;;3.03;2.50;;;;;;;29.22;22.17;94038.16;4992213;28;20263;-79
2023/04/02 06:00:40;;;;;;;2.88;2.42;;;;;;;28.78;21.58;94059.03;4992218;28;20569;-79
2023/04/02 06:03:33;;;;;;;8.50;1.92;;;;;;;29.00;22.26;94062.31;4992899;28;20681;-79
2023/04/02 06:06:04;;;;;;;3.63;2.03;;;;;;;29.21;21.43;94044.72;4992344;28;20612;-80
2023/04/02 06:08:40;;;;;;;5.88;1.95;;;;;;;28.97;22.72;94057.59;4992474;28;20165;-79
2023/04/02 06:11:12;;;;;;;3.17;2.25;;;;;;;29.44;21.91;94050.34;4991579;28;20173;-79
2023/04/02 06:13:38;;;;;;;3.67;2.10;;;;;;;29.73;21.86;94064.63;4991782;28;20200;-79
2023/04/02 06:16:05;;;;;;;4.25;2.20;;;;;;;30.04;20.65;94050.25;4991787;28;20760;-80
2023/04/02 06:18:33;;;;;;;2.97;2.05;;;;;;;30.18;20.62;94056.81;4992033;28;20260;-82
2023/04/02 06:20:59;;;;;;;4.90;2.42;;;;;;;30.60;20.58;94045.31;4991964;28;20178;-81
2023/04/02 06:23:55;;;;;;;2.35;2.03;;;;;;;31.14;20.55;94063.50;5007854;28;20597;-84
2023/04/02 06:26:34;;;;;;;6.93;2.20;;;;;;;31.57;19.77;94062.34;4992464;28;20177;-87
2023/04/02 06:29:18;;;;;;;2.17;1.60;;;;;;;31.89;19.63;94065.59;4986632;28;20187;-81
2023/04/02 06:31:46;;;;;;;4.28;1.70;;;;;;;31.76;18.91;94062.28;4972837;28;20604;-81
2023/04/02 06:34:21;;;;;;;1.88;1.60;;;;;;;31.45;20.73;94055.13;4983541;28;20208;-80
2023/04/02 06:36:48;;;;;;;2.97;2.17;;;;;;;31.09;20.49;94061.84;4991602;28;20196;-80
2023/04/02 06:39:22;;;;;;;4.57;1.80;;;;;;;30.77;20.70;94047.59;4992045;28;20738;-80
2023/04/02 06:42:10;;;;;;;1.50;1.40;;;;;;;30.39;20.75;94057.28;4991972;28;20264;-80
2023/04/02 06:44:36;;;;;;;3.67;1.48;;;;;;;29.29;21.64;94045.69;4995106;28;20183;-81
2023/04/02 06:47:10;;;;;;;6.30;1.70;;;;;;;27.93;22.84;94052.97;4995450;28;20665;-80
2023/04/02 06:49:43;;;;;;;5.97;2.33;;;;;;;27.42;24.46;94052.44;4995126;28;20169;-80
2023/04/02 06:52:38;;;;;;;4.68;1.80;;;;;;;27.13;25.03;94039.13;4995077;28;20696;-80
2023/04/02 06:55:19;;;;;;;4.10;1.73;;;;;;;26.76;25.09;94035.50;4995030;28;20201;-80
2023/04/02 06:57:46;;;;;;;3.63;1.77;;;;;;;26.37;25.60;94059.19;4993890;28;20192;-80
2023/04/02 07:00:37;;;;;;;3.15;1.92;;;;;;;25.82;26.23;94025.06;4995427;28;20188;-80
2023/04/02 07:03:07;;;;;;;4.88;2.13;;;;;;;25.76;26.52;94053.34;4989618;28;20189;-79
2023/04/02 07:05:32;;;;;;;5.53;2.30;;;;;;;25.52;27.65;94039.63;4995802;28;20166;-79
2023/04/02 07:07:58;;;;;;;3.10;1.30;;;;;;;25.17;25.83;94064.00;4995194;28;20173;-79
2023/04/02 07:10:25;;;;;;;2.38;1.17;;;;;;;24.38;26.16;94053.66;4994716;28;20170;-79
2023/04/02 07:12:50;;;;;;;1.50;1.40;;;;;;;23.46;27.91;94065.44;4994159;28;20603;-79
2023/04/02 07:15:18;;;;;;;1.40;1.30;;;;;;;23.01;28.18;94050.53;4994375;28;20312;-78
2023/04/02 07:17:45;;;;;;;2.22;1.48;;;;;;;22.68;29.78;94064.19;4994251;28;20185;-79
2023/04/02 07:20:29;;;;;;;1.92;1.30;;;;;;;22.57;31.89;94057.50;4994235;28;20181;-78
2023/04/02 07:22:55;;;;;;;1.30;1.20;;;;;;;22.72;31.12;94064.38;4994006;28;20180;-79
2023/04/02 07:25:20;;;;;;;1.77;1.50;;;;;;;22.80;29.86;94061.78;4994304;28;20260;-79
2023/04/02 07:27:46;;;;;;;2.60;1.50;;;;;;;23.03;30.88;94077.88;4991077;28;20613;-79
2023/04/02 07:30:12;;;;;;;0.95;0.90;;;;;;;22.95;30.46;94080.19;4994531;28;20184;-79
2023/04/02 07:32:37;;;;;;;1.75;1.20;;;;;;;22.84;30.42;94061.97;4994052;28;20177;-79
2023/04/02 07:35:04;;;;;;;3.97;1.80;;;;;;;22.66;30.72;94081.72;4994012;28;20231;-78
2023/04/02 07:37:30;;;;;;;1.27;1.20;;;;;;;22.70;30.85;94072.75;4994122;28;20161;-79
2023/04/02 07:39:55;;;;;;;3.33;1.73;;;;;;;22.79;29.59;94080.88;4994422;28;20259;-79
2023/04/02 07:42:21;;;;;;;1.52;1.17;;;;;;;22.80;31.36;94080.59;4994034;28;20851;-78
2023/04/02 07:44:46;;;;;;;1.80;1.20;;;;;;;23.06;30.62;94083.44;4993784;28;20181;-78
2023/04/02 07:47:11;;;;;;;1.65;1.20;;;;;;;23.20;31.07;94070.69;4993609;28;20176;-78
2023/04/02 07:49:37;;;;;;;0.88;0.88;;;;;;;23.39;29.06;94073.16;4993852;28;20169;-78
2023/04/02 07:52:02;;;;;;;1.10;1.00;;;;;;;23.20;29.30;94065.31;4993756;28;20192;-79
2023/04/02 07:54:29;;;;;;;1.52;0.80;;;;;;;23.22;30.67;94065.81;5008371;28;20177;-80
2023/04/02 07:56:54;;;;;;;1.25;1.15;;;;;;;23.26;29.71;94047.19;4994085;28;20272;-79
2023/04/02 07:59:20;;;;;;;1.55;1.45;;;;;;;23.22;28.85;94084.63;4994273;28;20323;-79
2023/04/02 08:01:46;;;;;;;1.33;1.23;;;;;;;23.20;30.85;94086.81;4993797;28;20173;-79
2023/04/02 08:04:20;;;;;;;3.25;1.15;;;;;;;22.33;29.16;94059.66;4993532;28;21091;-79
2023/04/02 08:06:47;;;;;;;0.98;0.93;;;;;;;21.62;30.80;94083.41;4989215;28;20636;-79
2023/04/02 08:09:15;;;;;;;1.20;1.10;;;;;;;21.29;33.32;94082.69;4993900;28;20243;-78
2023/04/02 08:11:42;;;;;;;1.15;1.15;;;;;;;21.41;33.92;94087.59;4993996;28;20179;-79
2023/04/02 08:14:08;;;;;;;0.80;0.80;;;;;;;21.85;34.26;94084.28;4993531;28;20331;-80
2023/04/02 08:16:46;;;;;;;5.80;1.75;;;;;;;21.89;33.15;94087.16;4993020;28;20200;-78
2023/04/02 08:19:12;;;;;;;1.38;1.23;;;;;;;22.02;32.48;94078.34;4992123;28;20235;-77
2023/04/02 08:21:38;;;;;;;1.23;1.13;;;;;;;22.30;32.35;94085.22;4992997;28;20173;-78
2023/04/02 08:24:07;;;;;;;2.42;1.20;;;;;;;22.48;31.38;94070.88;4992789;28;20204;-77
2023/04/02 08:26:33;;;;;;;1.83;1.50;;;;;;;22.63;30.89;94082.31;4993264;28;20253;-78
2023/04/02 08:28:59;;;;;;;2.25;1.65;;;;;;;22.48;30.86;94056.66;4992913;28;20185;-78
2023/04/02 08:31:25;;;;;;;3.05;1.50;;;;;;;22.34;31.30;94093.44;4993126;28;20188;-78
2023/04/02 08:33:55;;;;;;;3.63;1.42;;;;;;;22.20;33.90;94075.53;4993167;28;20192;-78
2023/04/02 08:36:33;;;;;;;3.85;1.50;;;;;;;21.84;32.82;94024.53;4992885;28;20208;-79
2023/04/02 08:39:03;;;;;;;2.28;1.73;;;;;;;21.60;32.32;94024.00;5006529;28;20181;-77
2023/04/02 08:41:43;;;;;;;2.00;1.17;;;;;;;21.71;32.07;94054.81;4992229;28;20189;-78
2023/04/02 08:44:38;;;;;;;1.92;1.20;;;;;;;21.87;32.97;94084.78;4987098;28;20192;-79
2023/04/02 08:47:09;;;;;;;3.85;1.73;;;;;;;21.01;32.13;93948.06;4986963;28;20213;-78
2023/04/02 08:49:44;;;;;;;3.05;1.20;;;;;;;21.22;32.50;93985.13;4993327;28;20268;-78
2023/04/02 08:52:25;;;;;;;2.33;1.33;;;;;;;21.50;35.12;93999.28;4988833;28;20240;-78
2023/04/02 08:54:52;;;;;;;1.85;1.10;;;;;;;21.86;32.91;94047.56;4988900;28;20259;-79
2023/04/02 08:57:35;;;;;;;1.80;1.40;;;;;;;21.25;33.29;93944.38;4993251;28;20166;-77
2023/04/02 09:00:15;;;;;;;1.27;1.17;;;;;;;21.92;31.81;94014.19;4999046;28;20276;-78
2023/04/02 09:02:49;;;;;;;1.45;1.00;;;;;;;21.79;31.58;93948.84;4993324;28;20658;-78
2023/04/02 09:05:28;;;;;;;1.85;1.30;;;;;;;22.10;33.19;93971.19;4993169;28;20178;-78
2023/04/02 09:08:00;;;;;;;1.63;1.25;;;;;;;22.02;31.62;93971.13;4995095;28;20164;-79
2023/04/02 09:10:40;;;;;;;1.23;0.90;;;;;;;21.98;31.78;93983.53;4994662;28;20173;-78
2023/04/02 09:13:19;;;;;;;0.93;0.88;;;;;;;22.00;31.04;94021.56;4993170;28;20642;-79
2023/04/02 09:15:46;;;;;;;1.50;1.10;;;;;;;21.40;34.33;93960.13;4982507;28;20708;-78
2023/04/02 09:18:16;;;;;;;0.95;0.95;;;;;;;21.55;32.64;94007.22;4991628;28;20177;-78
2023/04/02 09:20:44;;;;;;;1.40;1.20;;;;;;;21.46;32.74;93999.09;4990806;28;20184;-76
2023/04/02 09:23:20;;;;;;;2.20;1.10;;;;;;;21.87;34.06;94090.16;4991045;28;20185;-79
2023/04/02 09:25:55;;;;;;;0.90;0.90;;;;;;;21.58;32.75;94085.09;4991628;28;20181;-78
2023/04/02 09:28:22;;;;;;;2.55;1.60;;;;;;;21.33;32.81;94064.19;4988940;28;20165;-80
2023/04/02 09:31:18;;;;;;;1.77;1.10;;;;;;;21.21;32.05;94091.44;4991767;28;20665;-78
2023/04/02 09:33:47;;;;;;;1.75;1.20;;;;;;;20.05;33.35;93962.31;4989411;28;20180;-79
2023/04/02 09:36:39;;;;;;;2.22;1.00;;;;;;;20.51;32.06;94080.81;5002352;28;20587;-77
2023/04/02 09:39:25;;;;;;;2.60;1.10;;;;;;;18.72;34.54;93947.22;4989010;28;20189;-77
2023/04/02 09:41:51;;;;;;;1.27;1.10;;;;;;;19.37;36.14;94022.22;4985476;28;20200;-78
2023/04/02 09:44:34;;;;;;;2.78;2.05;;;;;;;19.00;36.34;93974.91;4991197;28;20233;-78
2023/04/02 09:47:22;;;;;;;1.48;1.00;;;;;;;19.01;34.77;94010.38;4988750;28;20221;-78
2023/04/02 09:49:48;;;;;;;3.45;2.40;;;;;;;18.94;35.55;94024.03;4992088;28;20169;-78
2023/04/02 09:52:26;;;;;;;3.60;1.83;;;;;;;18.51;35.58;93983.13;4991770;28;20235;-77
2023/04/02 09:55:15;;;;;;;2.85;1.45;;;;;;;18.14;35.60;93935.78;4992040;28;20180;-78
2023/04/02 09:57:46;;;;;;;1.60;1.50;;;;;;;17.78;35.01;93916.63;4980966;28;20231;-78
2023/04/02 10:00:27;;;;;;;2.13;1.25;;;;;;;17.80;37.61;93913.69;4999047;28;20181;-78
2023/04/02 10:03:23;;;;;;;0.90;0.90;;;;;;;18.81;35.55;94051.41;4992332;28;20169;-78
2023/04/02 10:06:05;;;;;;;1.83;1.00;;;;;;;18.82;37.21;94021.78;4986812;28;20186;-78
2023/04/02 10:08:31;;;;;;;1.80;1.00;;;;;;;18.71;35.95;93982.16;4991703;28;20670;-77
2023/04/02 10:11:01;;;;;;;1.63;1.48;;;;;;;18.88;36.29;94019.84;4991881;28;20204;-77
2023/04/02 10:13:50;;;;;;;7.63;2.20;;;;;;;19.25;37.08;94061.09;4988369;28;20190;-77
2023/04/02 10:16:41;;;;;;;3.22;1.60;;;;;;;18.40;38.66;93904.34;4997055;28;20641;-77
2023/04/02 10:19:31;;;;;;;1.63;1.30;;;;;;;19.58;37.62;94055.63;4994462;28;20184;-79
2023/04/02 10:21:57;;;;;;;2.40;1.88;;;;;;;19.69;38.36;94034.16;4988749;28;20288;-78
2023/04/02 10:24:27;;;;;;;1.00;1.00;;;;;;;19.88;37.94;94051.78;4995748;28;20233;-78
2023/04/02 10:26:52;;;;;;;3.13;1.00;;;;;;;19.93;35.74;94054.38;5005122;28;20680;-78
2023/04/02 10:29:42;;;;;;;1.25;1.00;;;;;;;19.98;36.32;94047.38;4987141;28;20212;-78
2023/04/02 10:32:30;;;;;;;2.17;1.50;;;;;;;20.01;38.67;94052.94;4995404;28;20255;-77
2023/04/02 10:35:18;;;;;;;2.88;1.50;;;;;;;19.70;37.66;94028.53;4989677;28;20181;-80
2023/04/02 10:37:43;;;;;;;1.17;1.08;;;;;;;19.67;35.55;94055.78;4995437;28;20215;-79
2023/04/02 10:40:41;;;;;;;1.40;1.30;;;;;;;19.71;37.98;94046.13;4995473;28;20201;-80
2023/04/02 10:43:37;;;;;;;3.53;1.92;;;;;;;19.73;36.99;94043.97;4994701;28;20196;-79
2023/04/02 10:46:14;;;;;;;5.93;1.80;;;;;;;19.73;38.45;94043.97;4993583;28;20706;-80
2023/04/02 10:48:52;;;;;;;1.35;1.10;;;;;;;19.73;38.65;94037.81;4976006;28;20173;-79
2023/04/02 10:51:43;;;;;;;1.10;1.00;;;;;;;19.70;36.24;94041.09;4994129;28;20173;-79
2023/04/02 10:54:32;;;;;;;1.88;1.60;;;;;;;19.59;37.64;94037.75;4990531;28;20176;-79
2023/04/02 10:57:22;;;;;;;2.25;1.85;;;;;;;19.59;37.71;94043.09;4990895;28;21121;-80
2023/04/02 10:59:55;;;;;;;2.95;1.13;;;;;;;19.47;37.56;94037.31;4989198;28;20585;-80
2023/04/02 11:02:30;;;;;;;2.10;1.20;;;;;;;19.40;37.78;94034.22;4993256;28;20693;-79
2023/04/02 11:05:00;;;;;;;1.52;1.00;;;;;;;19.34;38.19;94033.47;4987408;28;20599;-79
2023/04/02 11:07:29;;;;;;;5.03;0.77;;;;;;;19.27;37.92;94041.03;4995067;28;20264;-79
2023/04/02 11:09:57;;;;;;;2.75;1.23;;;;;;;19.13;37.84;94040.91;4995310;28;20177;-79
2023/04/02 11:12:43;;;;;;;3.92;1.52;;;;;;;18.89;39.06;94009.97;4977996;28;20166;-79
2023/04/02 11:15:19;;;;;;;2.15;1.33;;;;;;;18.98;37.83;94026.94;4993926;28;20193;-79
2023/04/02 11:17:45;;;;;;;2.88;1.40;;;;;;;19.07;37.16;94044.72;4994953;28;20569;-78
2023/04/02 11:20:53;;;;;;;0.80;0.80;;;;;;;18.98;37.37;94037.63;4989524;28;20235;-76
2023/04/02 11:23:19;;;;;;;1.75;1.40;;;;;;;18.70;38.42;93993.91;4993345;28;20658;-80
2023/04/02 11:25:46;;;;;;;3.97;1.55;;;;;;;18.88;37.29;94019.84;4990504;28;20181;-79
2023/04/02 11:28:28;;;;;;;1.73;1.30;;;;;;;19.04;39.37;94036.47;4992484;28;20747;-79
2023/04/02 11:30:55;;;;;;;1.75;1.40;;;;;;;19.11;37.10;94044.97;4991400;28;20189;-79
2023/04/02 11:33:29;;;;;;;8.35;1.92;;;;;;;19.12;37.09;94025.97;4991004;28;20850;-79
2023/04/02 11:35:55;;;;;;;5.18;2.05;;;;;;;19.04;37.22;94017.81;4992668;28;20689;-79
2023/04/02 11:38:24;;;;;;;3.05;1.60;;;;;;;19.08;37.12;94024.97;4991855;28;20276;-78
2023/04/02 11:40:50;;;;;;;1.35;1.25;;;;;;;18.91;35.51;94034.50;4987153;28;20181;-78
2023/04/02 11:43:34;;;;;;;1.27;1.17;;;;;;;18.65;37.99;94026.75;4988634;28;20181;-78
2023/04/02 11:46:29;;;;;;;2.35;1.55;;;;;;;18.66;39.19;94019.53;4991636;28;20251;-78
2023/04/02 11:49:34;;;;;;;5.53;1.83;;;;;;;18.55;38.00;94018.00;4992289;28;20196;-77
2023/04/02 11:52:01;;;;;;;3.63;2.13;;;;;;;18.56;38.91;94025.75;4989157;28;20659;-79
2023/04/02 11:54:30;;;;;;;2.40;1.17;;;;;;;18.62;39.45;94016.63;4992037;28;20188;-79
2023/04/02 11:57:29;;;;;;;1.88;1.05;;;;;;;18.75;36.81;94018.66;4993518;28;20193;-79
2023/04/02 12:00:24;;;;;;;0.98;0.98;;;;;;;18.85;38.15;94020.44;4975092;28;20177;-78
2023/04/02 12:03:13;;;;;;;2.67;1.85;;;;;;;18.89;37.99;94025.97;4993248;28;20180;-78
2023/04/02 12:05:47;;;;;;;1.75;1.48;;;;;;;18.83;37.40;94020.72;4992330;28;20655;-78
2023/04/02 12:08:34;;;;;;;2.13;1.92;;;;;;;18.90;37.82;94011.56;4993408;28;20216;-79
2023/04/02 12:11:01;;;;;;;3.83;1.20;;;;;;;19.01;37.52;94002.38;4992448;28;20181;-79
2023/04/02 12:13:38;;;;;;;1.20;1.10;;;;;;;19.29;38.06;94011.38;4993720;28;20180;-79
2023/04/02 12:16:05;;;;;;;2.90;1.10;;;;;;;19.34;35.72;94016.66;4993286;28;20554;-79